createdAt,value
2018-04-11T00:02:27.285Z,6.63
2018-04-11T00:05:01.579Z,7.40
2018-04-11T00:07:35.900Z,8.23
2018-04-11T00:10:10.264Z,8.40
2018-04-11T00:12:44.553Z,7.67
2018-04-11T00:15:18.997Z,9.07
2018-04-11T00:17:53.436Z,15.87
2018-04-11T00:20:28.925Z,22.47
2018-04-11T00:23:03.304Z,19.80
2018-04-11T00:25:37.741Z,11.53
2018-04-11T00:28:12.164Z,18.50
2018-04-11T00:30:46.686Z,10.23
2018-04-11T00:33:21.064Z,6.30
2018-04-11T00:35:55.384Z,7.50
2018-04-11T00:38:29.776Z,10.40
2018-04-11T00:41:05.348Z,7.97
2018-04-11T00:43:39.760Z,24.23
2018-04-11T00:46:14.600Z,9.80
2018-04-11T00:48:49.427Z,9.37
2018-04-11T00:51:24.596Z,13.70
2018-04-11T00:53:58.998Z,7.93
2018-04-11T00:56:33.432Z,8.53
2018-04-11T00:59:09.981Z,7.63
2018-04-11T01:01:44.448Z,8.37
2018-04-11T01:04:18.760Z,12.20
2018-04-11T01:06:53.547Z,10.43
2018-04-11T01:09:28.364Z,17.30
2018-04-11T01:12:02.812Z,10.17
2018-04-11T01:14:37.249Z,7.77
2018-04-11T01:17:12.048Z,10.87
2018-04-11T01:19:47.198Z,7.97
2018-04-11T01:22:21.653Z,15.43
2018-04-11T01:24:56.122Z,8.53
2018-04-11T01:27:31.184Z,6.70
2018-04-11T01:30:06.581Z,8.07
2018-04-11T01:32:40.959Z,8.00
2018-04-11T01:35:15.653Z,9.00
2018-04-11T01:37:50.120Z,14.03
2018-04-11T01:40:24.531Z,14.60
2018-04-11T01:42:59.274Z,29.20
2018-04-11T01:45:33.701Z,31.10
2018-04-11T01:48:08.107Z,25.10
2018-04-11T01:50:49.391Z,17.40
2018-04-11T01:53:27.045Z,10.10
2018-04-11T01:56:02.488Z,13.30
2018-04-11T01:58:36.728Z,9.63
2018-04-11T02:01:11.099Z,17.60
2018-04-11T02:03:45.897Z,7.93
2018-04-11T02:06:20.217Z,8.50
2018-04-11T02:08:54.531Z,20.33
2018-04-11T02:11:28.936Z,18.67
2018-04-11T02:14:03.250Z,8.20
2018-04-11T02:16:37.974Z,8.90
2018-04-11T02:19:13.136Z,10.00
2018-04-11T02:21:47.653Z,9.77
2018-04-11T02:24:22.096Z,17.63
2018-04-11T02:26:56.561Z,29.03
2018-04-11T02:29:31.009Z,9.00
2018-04-11T02:32:05.473Z,10.77
2018-04-11T02:34:39.794Z,16.60
2018-04-11T02:37:14.188Z,9.10
2018-04-11T02:39:48.469Z,9.57
2018-04-11T02:42:22.771Z,21.13
2018-04-11T02:44:57.417Z,9.20
2018-04-11T02:47:31.760Z,10.13
2018-04-11T02:50:06.040Z,22.87
2018-04-11T02:52:41.824Z,14.67
2018-04-11T02:55:16.371Z,26.40
2018-04-11T02:57:50.890Z,26.60
2018-04-11T03:00:25.405Z,16.67
2018-04-11T03:02:59.712Z,25.80
2018-04-11T03:05:34.769Z,11.17
2018-04-11T03:08:09.090Z,20.77
2018-04-11T03:10:43.538Z,19.40
2018-04-11T03:13:18.128Z,21.07
2018-04-11T03:15:52.745Z,29.30
2018-04-11T03:18:27.267Z,9.70
2018-04-11T03:21:01.902Z,18.27
2018-04-11T03:23:36.477Z,18.57
2018-04-11T03:26:11.035Z,15.27
2018-04-11T03:28:45.557Z,20.17
2018-04-11T03:31:19.951Z,23.93
2018-04-11T03:33:54.394Z,10.83
2018-04-11T03:36:28.829Z,17.17
2018-04-11T03:39:04.692Z,23.50
2018-04-11T03:41:39.918Z,12.37
2018-04-11T03:44:14.333Z,18.53
2018-04-11T03:46:48.961Z,9.43
2018-04-11T03:49:23.254Z,22.50
2018-04-11T03:54:38.045Z,13.03
2018-04-11T03:59:52.903Z,10.53
2018-04-11T04:02:27.744Z,10.47
2018-04-11T04:05:02.256Z,16.10
2018-04-11T04:07:36.941Z,9.57
2018-04-11T04:10:11.300Z,11.53
2018-04-11T04:12:45.670Z,13.87
2018-04-11T04:15:32.000Z,16.87
2018-04-11T04:18:18.332Z,17.03
2018-04-11T04:20:52.875Z,10.97
2018-04-11T04:23:28.108Z,21.93
2018-04-11T04:26:02.621Z,22.57
2018-04-11T04:28:36.969Z,15.13
2018-04-11T04:31:12.113Z,22.20
2018-04-11T04:33:46.602Z,17.53
2018-04-11T04:36:20.972Z,10.33
2018-04-11T04:38:55.452Z,15.23
2018-04-11T04:41:29.815Z,9.37
2018-04-11T04:44:04.352Z,19.27
2018-04-11T04:46:38.707Z,25.50
2018-04-11T04:49:13.049Z,9.03
2018-04-11T04:51:47.457Z,12.57
2018-04-11T04:54:21.987Z,11.00
2018-04-11T04:56:56.427Z,16.53
2018-04-11T04:59:31.645Z,12.17
2018-04-11T05:02:06.164Z,11.77
2018-04-11T05:04:40.469Z,16.73
2018-04-11T05:07:15.515Z,15.47
2018-04-11T05:09:49.789Z,9.03
2018-04-11T05:12:24.227Z,12.03
2018-04-11T05:14:58.559Z,9.20
2018-04-11T05:17:33.049Z,10.67
2018-04-11T05:20:07.580Z,10.43
2018-04-11T05:22:42.082Z,16.03
2018-04-11T05:25:16.447Z,15.63
2018-04-11T05:27:50.716Z,14.10
2018-04-11T05:30:25.182Z,14.27
2018-04-11T05:32:59.517Z,18.23
2018-04-11T05:35:34.013Z,23.97
2018-04-11T05:38:08.499Z,22.10
2018-04-11T05:40:42.837Z,15.10
2018-04-11T05:43:18.840Z,15.77
2018-04-11T05:45:53.172Z,16.57
2018-04-11T05:48:27.615Z,13.70
2018-04-11T05:51:02.205Z,20.13
2018-04-11T05:53:36.769Z,18.73
2018-04-11T05:56:11.289Z,18.10
2018-04-11T05:58:46.485Z,24.73
2018-04-11T06:01:20.860Z,21.97
2018-04-11T06:03:55.212Z,26.07
2018-04-11T06:06:29.590Z,25.57
2018-04-11T06:09:04.079Z,28.50
2018-04-11T06:11:38.497Z,26.13
2018-04-11T06:14:12.896Z,26.73
2018-04-11T06:16:47.245Z,28.13
2018-04-11T06:19:21.779Z,27.50
2018-04-11T06:21:56.296Z,29.87
2018-04-11T06:24:30.623Z,31.27
2018-04-11T06:27:05.862Z,29.83
2018-04-11T06:29:40.378Z,25.03
2018-04-11T06:32:14.906Z,28.33
2018-04-11T06:34:49.187Z,19.13
2018-04-11T06:37:23.516Z,24.57
2018-04-11T06:39:57.836Z,24.17
2018-04-11T06:42:32.174Z,23.07
2018-04-11T06:45:06.483Z,26.83
2018-04-11T06:47:40.887Z,25.57
2018-04-11T06:50:15.419Z,28.40
2018-04-11T06:52:50.648Z,24.83
2018-04-11T06:55:25.095Z,17.10
2018-04-11T06:57:59.384Z,30.07
2018-04-11T07:00:33.709Z,20.57
2018-04-11T07:03:08.151Z,20.33
2018-04-11T07:05:43.387Z,27.33
2018-04-11T07:08:17.793Z,28.33
2018-04-11T07:10:52.255Z,27.87
2018-04-11T07:13:26.680Z,28.50
2018-04-11T07:16:01.281Z,22.93
2018-04-11T07:18:35.564Z,18.13
2018-04-11T07:21:10.036Z,23.93
2018-04-11T07:23:44.620Z,24.50
2018-04-11T07:26:19.066Z,20.20
2018-04-11T07:28:54.494Z,23.97
2018-04-11T07:31:28.830Z,28.07
2018-04-11T07:34:03.178Z,22.77
2018-04-11T07:36:37.542Z,20.27
2018-04-11T07:39:12.075Z,21.63
2018-04-11T07:41:46.582Z,17.00
2018-04-11T07:44:21.035Z,19.43
2018-04-11T07:46:55.552Z,23.00
2018-04-11T07:49:29.969Z,23.33
2018-04-11T07:52:04.510Z,24.43
2018-04-11T07:54:38.901Z,24.63
2018-04-11T07:57:13.213Z,24.30
2018-04-11T07:59:47.618Z,18.80
2018-04-11T08:02:22.071Z,20.57
2018-04-11T08:04:56.351Z,22.27
2018-04-11T08:07:30.718Z,12.57
2018-04-11T08:10:05.277Z,16.53
2018-04-11T08:12:39.517Z,22.23
2018-04-11T08:15:13.916Z,21.37
2018-04-11T08:17:48.532Z,19.13
2018-04-11T08:20:23.828Z,20.47
2018-04-11T08:22:58.128Z,20.90
2018-04-11T08:25:32.786Z,24.00
2018-04-11T08:28:07.193Z,18.47
2018-04-11T08:30:41.717Z,20.43
2018-04-11T08:33:16.244Z,18.33
2018-04-11T08:35:50.667Z,17.47
2018-04-11T08:38:25.224Z,21.40
2018-04-11T08:40:59.504Z,16.50
2018-04-11T08:43:33.800Z,18.97
2018-04-11T08:46:08.272Z,15.93
2018-04-11T08:48:42.642Z,17.63
2018-04-11T08:51:17.185Z,26.40
2018-04-11T08:53:51.792Z,19.77
2018-04-11T08:56:26.456Z,20.40
2018-04-11T08:59:00.745Z,19.60
2018-04-11T09:01:35.193Z,19.03
2018-04-11T09:04:09.593Z,19.60
2018-04-11T09:06:44.159Z,23.57
2018-04-11T09:09:18.656Z,21.13
2018-04-11T09:11:53.074Z,15.03
2018-04-11T09:14:28.119Z,21.57
2018-04-11T09:17:02.408Z,14.43
2018-04-11T09:19:37.688Z,21.43
2018-04-11T09:22:12.054Z,23.90
2018-04-11T09:24:46.550Z,19.23
2018-04-11T09:27:20.923Z,18.43
2018-04-11T09:29:55.208Z,21.13
2018-04-11T09:32:29.568Z,21.53
2018-04-11T09:35:03.949Z,18.13
2018-04-11T09:37:38.274Z,18.47
2018-04-11T09:40:14.360Z,20.50
2018-04-11T09:42:48.690Z,24.17
2018-04-11T09:45:23.098Z,24.23
2018-04-11T09:47:57.513Z,25.70
2018-04-11T09:50:31.909Z,22.30
2018-04-11T09:53:06.265Z,29.43
2018-04-11T09:55:40.592Z,22.87
2018-04-11T09:58:14.999Z,17.77
2018-04-11T10:00:53.488Z,21.93
2018-04-11T10:03:27.830Z,19.67
2018-04-11T10:06:02.296Z,22.57
2018-04-11T10:08:36.607Z,26.43
2018-04-11T10:11:10.915Z,22.70
2018-04-11T10:13:45.213Z,25.63
2018-04-11T10:16:19.740Z,23.70
2018-04-11T10:18:54.157Z,17.03
2018-04-11T10:21:28.471Z,22.63
2018-04-11T10:24:04.445Z,22.97
2018-04-11T10:26:38.775Z,22.63
2018-04-11T10:29:13.083Z,24.73
2018-04-11T10:31:47.368Z,15.40
2018-04-11T10:34:21.785Z,32.70
2018-04-11T10:36:56.325Z,17.77
2018-04-11T10:39:30.829Z,19.57
2018-04-11T10:42:06.096Z,25.17
2018-04-11T10:44:40.494Z,22.30
2018-04-11T10:47:14.814Z,25.63
2018-04-11T10:49:49.235Z,25.80
2018-04-11T10:52:26.122Z,18.87
2018-04-11T10:55:01.293Z,21.67
2018-04-11T10:57:35.590Z,16.80
2018-04-11T11:00:10.100Z,22.53
2018-04-11T11:02:44.501Z,26.50
2018-04-11T11:05:18.855Z,25.20
2018-04-11T11:07:53.208Z,22.73
2018-04-11T11:10:27.680Z,25.00
2018-04-11T11:13:02.106Z,23.73
2018-04-11T11:15:36.529Z,18.03
2018-04-11T11:18:10.968Z,20.53
2018-04-11T11:20:57.165Z,13.30
2018-04-11T11:23:32.925Z,22.10
2018-04-11T11:26:07.312Z,21.17
2018-04-11T11:28:42.561Z,16.57
2018-04-11T11:31:16.881Z,22.97
2018-04-11T11:33:51.408Z,18.43
2018-04-11T11:36:25.715Z,13.77
2018-04-11T11:39:00.113Z,19.37
2018-04-11T11:41:34.572Z,18.07
2018-04-11T11:44:08.995Z,17.97
2018-04-11T11:46:43.285Z,28.43
2018-04-11T11:49:17.845Z,22.60
2018-04-11T11:51:52.164Z,24.37
2018-04-11T11:54:26.641Z,27.03
2018-04-11T11:57:00.954Z,32.27
2018-04-11T11:59:35.224Z,32.40
2018-04-11T12:02:09.701Z,35.23
2018-04-11T12:04:44.030Z,32.37
2018-04-11T12:07:18.596Z,30.63
2018-04-11T12:09:53.041Z,35.60
2018-04-11T12:12:27.617Z,29.50
2018-04-11T12:15:02.030Z,34.73
2018-04-11T12:17:36.427Z,37.13
2018-04-11T12:20:11.594Z,31.47
2018-04-11T12:22:45.949Z,30.80
2018-04-11T12:25:21.188Z,28.40
2018-04-11T12:27:55.467Z,28.63
2018-04-11T12:30:30.598Z,28.47
2018-04-11T12:33:04.889Z,32.27
2018-04-11T12:35:39.196Z,34.67
2018-04-11T12:38:13.651Z,31.93
2018-04-11T12:40:48.806Z,31.13
2018-04-11T12:43:23.229Z,28.70
2018-04-11T12:45:57.625Z,29.83
2018-04-11T12:48:32.085Z,29.30
2018-04-11T12:51:07.230Z,28.77
2018-04-11T12:53:41.647Z,28.60
2018-04-11T12:56:15.953Z,28.80
2018-04-11T12:58:50.291Z,32.03
2018-04-11T13:01:24.752Z,32.83
2018-04-11T13:03:59.109Z,25.47
2018-04-11T13:06:34.345Z,26.93
2018-04-11T13:09:08.781Z,29.50
2018-04-11T13:11:44.041Z,29.77
2018-04-11T13:14:18.636Z,37.43
2018-04-11T13:16:53.112Z,25.93
2018-04-11T13:19:27.457Z,28.80
2018-04-11T13:22:01.769Z,30.37
2018-04-11T13:24:36.127Z,30.83
2018-04-11T13:27:10.460Z,27.37
2018-04-11T13:29:44.845Z,31.17
2018-04-11T13:32:19.336Z,32.27
2018-04-11T13:34:53.891Z,27.80
2018-04-11T13:37:28.377Z,29.73
2018-04-11T13:40:03.039Z,30.70
2018-04-11T13:42:37.327Z,28.70
2018-04-11T13:45:11.860Z,31.20
2018-04-11T13:47:46.177Z,29.83
2018-04-11T13:50:21.563Z,28.10
2018-04-11T13:52:56.833Z,30.17
2018-04-11T13:55:32.216Z,31.63
2018-04-11T13:58:06.872Z,36.50
2018-04-11T14:00:41.156Z,32.63
2018-04-11T14:03:15.567Z,33.97
2018-04-11T14:05:50.010Z,31.23
2018-04-11T14:08:25.128Z,34.23
2018-04-11T14:10:59.548Z,34.43
2018-04-11T14:13:34.880Z,35.50
2018-04-11T14:16:09.212Z,35.23
2018-04-11T14:18:43.648Z,38.00
2018-04-11T14:21:18.074Z,36.10
2018-04-11T14:23:52.368Z,31.70
2018-04-11T14:26:27.569Z,33.13
2018-04-11T14:29:06.298Z,36.33
2018-04-11T14:31:40.562Z,33.03
2018-04-11T14:34:14.961Z,34.67
2018-04-11T14:36:49.615Z,31.43
2018-04-11T14:39:24.297Z,33.33
2018-04-11T14:41:58.895Z,35.97
2018-04-11T14:44:33.397Z,36.47
2018-04-11T14:47:07.802Z,30.10
2018-04-11T14:49:42.164Z,29.53
2018-04-11T14:52:16.644Z,33.40
2018-04-11T14:54:51.155Z,34.00
2018-04-11T14:57:25.487Z,33.27
2018-04-11T15:00:00.111Z,37.63
2018-04-11T15:02:34.624Z,36.10
2018-04-11T15:05:09.772Z,43.70
2018-04-11T15:07:44.074Z,35.93
2018-04-11T15:10:18.382Z,40.70
2018-04-11T15:12:52.801Z,35.30
2018-04-11T15:15:27.148Z,34.83
2018-04-11T15:18:01.496Z,38.43
2018-04-11T15:20:35.988Z,35.60
2018-04-11T15:23:10.545Z,33.33
2018-04-11T15:25:44.977Z,38.77
2018-04-11T15:28:19.469Z,40.53
2018-04-11T15:30:53.936Z,36.27
2018-04-11T15:33:28.403Z,35.27
2018-04-11T15:36:02.933Z,38.97
2018-04-11T15:38:37.233Z,38.47
2018-04-11T15:41:11.867Z,32.63
2018-04-11T15:43:46.925Z,33.10
2018-04-11T15:46:33.949Z,32.43
2018-04-11T15:49:08.355Z,37.77
2018-04-11T15:51:43.665Z,34.90
2018-04-11T15:54:18.020Z,40.77
2018-04-11T15:56:53.129Z,42.73
2018-04-11T15:59:27.509Z,44.43
2018-04-11T16:02:01.888Z,43.37
2018-04-11T16:04:36.289Z,46.67
2018-04-11T16:07:10.640Z,44.23
2018-04-11T16:09:45.040Z,44.70
2018-04-11T16:12:19.427Z,43.73
2018-04-11T16:14:54.090Z,42.63
2018-04-11T16:17:28.552Z,44.50
2018-04-11T16:20:02.964Z,43.17
2018-04-11T16:22:37.960Z,44.40
2018-04-11T16:25:12.586Z,41.80
2018-04-11T16:27:47.717Z,45.27
2018-04-11T16:30:22.056Z,40.03
2018-04-11T16:32:56.390Z,41.80
2018-04-11T16:35:31.579Z,39.37
2018-04-11T16:38:06.114Z,33.10
2018-04-11T16:40:41.136Z,37.73
2018-04-11T16:43:15.651Z,33.97
2018-04-11T16:45:54.732Z,37.10
2018-04-11T16:48:29.334Z,41.00
2018-04-11T16:51:04.594Z,37.17
2018-04-11T16:53:39.055Z,39.17
2018-04-11T16:56:13.617Z,35.83
2018-04-11T16:58:48.052Z,36.60
2018-04-11T17:01:22.659Z,43.13
2018-04-11T17:03:57.047Z,35.50
2018-04-11T17:06:31.392Z,39.37
2018-04-11T17:09:05.822Z,39.77
2018-04-11T17:11:40.252Z,38.27
2018-04-11T17:14:14.548Z,39.27
2018-04-11T17:16:48.960Z,37.43
2018-04-11T17:19:24.023Z,43.03
2018-04-11T17:22:10.243Z,45.20
2018-04-11T17:24:56.464Z,45.50
2018-04-11T17:27:42.741Z,43.93
2018-04-11T17:30:29.024Z,48.97
2018-04-11T17:33:03.325Z,49.23
2018-04-11T17:35:37.847Z,48.97
2018-04-11T17:38:12.272Z,51.53
2018-04-11T17:40:46.671Z,49.77
2018-04-11T17:43:21.041Z,45.50
2018-04-11T17:45:55.329Z,52.37
2018-04-11T17:48:30.460Z,46.80
2018-04-11T17:51:05.210Z,54.07
2018-04-11T17:53:39.722Z,49.73
2018-04-11T17:56:14.225Z,51.57
2018-04-11T17:58:49.056Z,51.57
2018-04-11T18:01:24.191Z,50.90
2018-04-11T18:03:58.541Z,46.67
2018-04-11T18:06:32.856Z,50.10
2018-04-11T18:09:07.120Z,48.20
2018-04-11T18:11:41.385Z,44.53
2018-04-11T18:14:15.901Z,43.07
2018-04-11T18:16:50.373Z,46.90
2018-04-11T18:19:24.744Z,42.60
2018-04-11T18:21:59.057Z,42.67
2018-04-11T18:24:33.488Z,42.77
2018-04-11T18:27:07.868Z,44.87
2018-04-11T18:29:42.446Z,41.67
2018-04-11T18:32:16.975Z,41.63
2018-04-11T18:34:51.381Z,33.60
2018-04-11T18:37:25.796Z,33.00
2018-04-11T18:40:01.627Z,32.67
2018-04-11T18:42:36.036Z,32.83
2018-04-11T18:45:10.472Z,27.17
2018-04-11T18:47:44.897Z,32.87
2018-04-11T18:50:19.387Z,30.43
2018-04-11T18:52:53.764Z,36.23
2018-04-11T18:55:28.339Z,32.93
2018-04-11T18:58:02.675Z,35.97
2018-04-11T19:00:37.073Z,28.33
2018-04-11T19:03:11.493Z,22.83
2018-04-11T19:05:45.886Z,17.73
2018-04-11T19:08:20.207Z,35.77
2018-04-11T19:10:54.709Z,26.60
2018-04-11T19:13:29.038Z,36.77
2018-04-11T19:16:03.541Z,31.97
2018-04-11T19:18:37.934Z,33.17
2018-04-11T19:21:12.289Z,37.27
2018-04-11T19:23:46.617Z,33.70
2018-04-11T19:26:20.954Z,34.57
2018-04-11T19:28:55.390Z,17.03
2018-04-11T19:31:30.454Z,34.77
2018-04-11T19:34:04.748Z,38.30
2018-04-11T19:36:39.328Z,41.73
2018-04-11T19:39:13.619Z,27.10
2018-04-11T19:41:47.936Z,30.40
2018-04-11T19:44:22.493Z,33.80
2018-04-11T19:46:56.791Z,28.37
2018-04-11T19:49:31.517Z,19.27
2018-04-11T19:52:05.819Z,27.60
2018-04-11T19:54:40.202Z,38.23
2018-04-11T19:57:14.686Z,26.70
2018-04-11T19:59:49.108Z,25.90
2018-04-11T20:02:23.392Z,19.97
2018-04-11T20:04:58.068Z,39.97
2018-04-11T20:07:32.357Z,20.30
2018-04-11T20:10:06.897Z,40.27
2018-04-11T20:12:41.309Z,40.07
2018-04-11T20:15:15.684Z,28.33
2018-04-11T20:17:50.238Z,42.13
2018-04-11T20:20:25.381Z,20.83
2018-04-11T20:23:00.433Z,37.77
2018-04-11T20:25:34.788Z,39.13
2018-04-11T20:28:09.126Z,23.73
2018-04-11T20:30:43.570Z,22.33
2018-04-11T20:33:18.707Z,28.27
2018-04-11T20:35:54.786Z,31.90
2018-04-11T20:38:29.213Z,18.13
2018-04-11T20:41:03.745Z,27.27
2018-04-11T20:43:38.087Z,29.97
2018-04-11T20:46:13.151Z,32.43
2018-04-11T20:48:47.494Z,32.30
2018-04-11T20:51:21.826Z,39.13
2018-04-11T20:53:56.164Z,31.23
2018-04-11T20:56:31.264Z,38.03
2018-04-11T20:59:05.685Z,16.67
2018-04-11T21:01:40.183Z,14.87
2018-04-11T21:04:14.591Z,17.53
2018-04-11T21:06:49.772Z,30.17
2018-04-11T21:09:24.204Z,23.37
2018-04-11T21:11:58.512Z,18.67
2018-04-11T21:14:33.061Z,23.00
2018-04-11T21:17:07.612Z,16.00
2018-04-11T21:19:42.203Z,15.93
2018-04-11T21:22:16.670Z,27.63
2018-04-11T21:24:51.179Z,26.20
2018-04-11T21:27:26.248Z,13.70
2018-04-11T21:30:00.623Z,27.30
2018-04-11T21:32:35.029Z,23.30
2018-04-11T21:35:09.569Z,14.37
2018-04-11T21:37:44.064Z,17.80
2018-04-11T21:40:18.492Z,25.57
2018-04-11T21:42:52.892Z,13.87
2018-04-11T21:45:27.244Z,15.57
2018-04-11T21:48:01.853Z,10.50
2018-04-11T21:50:36.290Z,16.13
2018-04-11T21:53:10.657Z,12.63
2018-04-11T21:55:45.140Z,12.40
2018-04-11T21:58:20.248Z,18.10
2018-04-11T22:00:55.368Z,13.67
2018-04-11T22:03:29.700Z,10.30
2018-04-11T22:06:04.100Z,13.30
2018-04-11T22:08:38.572Z,17.33
2018-04-11T22:11:13.076Z,12.43
2018-04-11T22:13:47.496Z,17.07
2018-04-11T22:16:21.980Z,13.00
2018-04-11T22:18:56.289Z,13.23
2018-04-11T22:21:30.756Z,15.30
2018-04-11T22:24:05.145Z,13.60
2018-04-11T22:26:39.386Z,17.20
2018-04-11T22:29:13.821Z,15.10
2018-04-11T22:31:48.229Z,12.97
2018-04-11T22:34:22.602Z,13.20
2018-04-11T22:36:57.050Z,26.70
2018-04-11T22:39:32.120Z,34.73
2018-04-11T22:42:07.236Z,19.50
2018-04-11T22:44:41.545Z,27.33
2018-04-11T22:47:16.720Z,17.67
2018-04-11T22:49:51.062Z,19.83
2018-04-11T22:52:25.550Z,10.17
2018-04-11T22:54:59.881Z,35.40
2018-04-11T22:57:34.232Z,13.57
2018-04-11T23:00:08.644Z,10.03
2018-04-11T23:02:42.866Z,17.83
2018-04-11T23:05:17.444Z,15.10
2018-04-11T23:07:52.667Z,22.60
2018-04-11T23:10:27.005Z,11.53
2018-04-11T23:13:01.490Z,14.03
2018-04-11T23:15:35.968Z,23.53
2018-04-11T23:18:10.340Z,28.83
2018-04-11T23:20:44.777Z,29.80
2018-04-11T23:23:19.297Z,15.60
2018-04-11T23:25:54.455Z,10.97
2018-04-11T23:28:28.982Z,14.03
2018-04-11T23:31:03.273Z,12.77
2018-04-11T23:33:37.721Z,9.73
2018-04-11T23:36:12.081Z,27.97
2018-04-11T23:38:46.538Z,20.93
2018-04-11T23:41:20.875Z,11.80
2018-04-11T23:43:55.833Z,26.03
2018-04-11T23:46:30.265Z,15.70
2018-04-11T23:49:04.666Z,16.83
2018-04-11T23:51:39.078Z,16.87
2018-04-11T23:54:13.617Z,16.47
2018-04-11T23:56:48.022Z,16.20
2018-04-11T23:59:23.265Z,13.10
